sensor_id;sensor_type;location;lat;lon;timestamp;temperature;humidity
22698;DHT22;11516;51.612;7.510;2023-06-26T00:01:31;21.90;99.90
22698;DHT22;11516;51.612;7.510;2023-06-26T00:04:00;21.90;99.90
22698;DHT22;11516;51.612;7.510;2023-06-26T00:06:26;21.90;99.90
22698;DHT22;11516;51.612;7.510;2023-06-26T00:08:53;21.90;99.90
22698;DHT22;11516;51.612;7.510;2023-06-26T00:11:20;21.80;99.90
22698;DHT22;11516;51.612;7.510;2023-06-26T00:13:45;21.80;99.90
22698;DHT22;11516;51.612;7.510;2023-06-26T00:16:11;21.80;99.90
22698;DHT22;11516;51.612;7.510;2023-06-26T00:18:37;21.80;99.90
22698;DHT22;11516;51.612;7.510;2023-06-26T00:21:02;21.80;99.90
22698;DHT22;11516;51.612;7.510;2023-06-26T00:23:28;21.80;99.90
22698;DHT22;11516;51.612;7.510;2023-06-26T00:25:56;21.70;99.90
22698;DHT22;11516;51.612;7.510;2023-06-26T00:28:21;21.70;99.90
22698;DHT22;11516;51.612;7.510;2023-06-26T00:30:47;21.60;99.90
22698;DHT22;11516;51.612;7.510;2023-06-26T00:33:12;21.60;99.90
22698;DHT22;11516;51.612;7.510;2023-06-26T00:35:38;21.60;99.90
22698;DHT22;11516;51.612;7.510;2023-06-26T00:38:03;21.70;99.90
22698;DHT22;11516;51.612;7.510;2023-06-26T00:40:29;21.50;99.90
22698;DHT22;11516;51.612;7.510;2023-06-26T00:42:55;21.50;99.90
22698;DHT22;11516;51.612;7.510;2023-06-26T00:45:20;21.50;99.90
22698;DHT22;11516;51.612;7.510;2023-06-26T00:47:46;21.50;99.90
22698;DHT22;11516;51.612;7.510;2023-06-26T00:50:12;21.40;99.90
22698;DHT22;11516;51.612;7.510;2023-06-26T00:52:41;21.40;99.90
22698;DHT22;11516;51.612;7.510;2023-06-26T00:55:07;21.40;99.90
22698;DHT22;11516;51.612;7.510;2023-06-26T00:57:33;21.40;99.90
22698;DHT22;11516;51.612;7.510;2023-06-26T00:59:59;21.40;99.90
22698;DHT22;11516;51.612;7.510;2023-06-26T01:02:25;21.40;99.90
22698;DHT22;11516;51.612;7.510;2023-06-26T01:04:59;21.40;99.90
22698;DHT22;11516;51.612;7.510;2023-06-26T01:07:25;21.40;99.90
22698;DHT22;11516;51.612;7.510;2023-06-26T01:09:51;21.40;99.90
22698;DHT22;11516;51.612;7.510;2023-06-26T01:12:16;21.40;99.90
22698;DHT22;11516;51.612;7.510;2023-06-26T01:14:42;21.40;99.90
22698;DHT22;11516;51.612;7.510;2023-06-26T01:17:09;21.50;99.90
22698;DHT22;11516;51.612;7.510;2023-06-26T01:19:39;21.40;99.90
22698;DHT22;11516;51.612;7.510;2023-06-26T01:22:28;21.40;99.90
22698;DHT22;11516;51.612;7.510;2023-06-26T01:27:49;21.40;99.90
22698;DHT22;11516;51.612;7.510;2023-06-26T01:30:16;21.30;99.90
22698;DHT22;11516;51.612;7.510;2023-06-26T01:32:43;21.30;99.90
22698;DHT22;11516;51.612;7.510;2023-06-26T01:35:09;21.40;99.90
22698;DHT22;11516;51.612;7.510;2023-06-26T01:37:36;21.30;99.90
22698;DHT22;11516;51.612;7.510;2023-06-26T01:40:01;21.30;99.90
22698;DHT22;11516;51.612;7.510;2023-06-26T01:42:31;21.30;99.90
22698;DHT22;11516;51.612;7.510;2023-06-26T01:44:56;21.30;99.90
22698;DHT22;11516;51.612;7.510;2023-06-26T01:47:24;21.20;99.90
22698;DHT22;11516;51.612;7.510;2023-06-26T01:50:00;21.30;99.90
22698;DHT22;11516;51.612;7.510;2023-06-26T01:52:35;21.20;99.90
22698;DHT22;11516;51.612;7.510;2023-06-26T01:57:56;21.20;99.90
22698;DHT22;11516;51.612;7.510;2023-06-26T02:00:24;21.20;99.90
22698;DHT22;11516;51.612;7.510;2023-06-26T02:02:49;21.20;99.90
22698;DHT22;11516;51.612;7.510;2023-06-26T02:05:15;21.10;99.90
22698;DHT22;11516;51.612;7.510;2023-06-26T02:07:41;21.20;99.90
22698;DHT22;11516;51.612;7.510;2023-06-26T02:10:07;21.20;99.90
22698;DHT22;11516;51.612;7.510;2023-06-26T02:12:33;21.20;99.90
22698;DHT22;11516;51.612;7.510;2023-06-26T02:14:59;21.10;99.90
22698;DHT22;11516;51.612;7.510;2023-06-26T02:17:24;21.20;99.90
22698;DHT22;11516;51.612;7.510;2023-06-26T02:19:50;21.10;99.90
22698;DHT22;11516;51.612;7.510;2023-06-26T02:22:16;21.10;99.90
22698;DHT22;11516;51.612;7.510;2023-06-26T02:24:45;21.10;99.90
22698;DHT22;11516;51.612;7.510;2023-06-26T02:27:10;21.20;99.90
22698;DHT22;11516;51.612;7.510;2023-06-26T02:29:36;21.10;99.90
22698;DHT22;11516;51.612;7.510;2023-06-26T02:32:02;21.10;99.90
22698;DHT22;11516;51.612;7.510;2023-06-26T02:34:27;21.10;99.90
22698;DHT22;11516;51.612;7.510;2023-06-26T02:36:53;21.00;99.90
22698;DHT22;11516;51.612;7.510;2023-06-26T02:39:22;21.10;99.90
22698;DHT22;11516;51.612;7.510;2023-06-26T02:41:47;21.00;99.90
22698;DHT22;11516;51.612;7.510;2023-06-26T02:44:13;21.00;99.90
22698;DHT22;11516;51.612;7.510;2023-06-26T02:46:40;21.00;99.90
22698;DHT22;11516;51.612;7.510;2023-06-26T02:49:06;21.00;99.90
22698;DHT22;11516;51.612;7.510;2023-06-26T02:51:32;21.00;99.90
22698;DHT22;11516;51.612;7.510;2023-06-26T02:53:58;20.90;99.90
22698;DHT22;11516;51.612;7.510;2023-06-26T02:56:24;20.90;99.90
22698;DHT22;11516;51.612;7.510;2023-06-26T02:58:49;20.90;99.90
22698;DHT22;11516;51.612;7.510;2023-06-26T03:01:15;20.80;99.90
22698;DHT22;11516;51.612;7.510;2023-06-26T03:03:41;20.70;99.90
22698;DHT22;11516;51.612;7.510;2023-06-26T03:06:07;20.70;99.90
22698;DHT22;11516;51.612;7.510;2023-06-26T03:08:36;20.70;99.90
22698;DHT22;11516;51.612;7.510;2023-06-26T03:11:01;20.70;99.90
22698;DHT22;11516;51.612;7.510;2023-06-26T03:13:27;20.70;99.90
22698;DHT22;11516;51.612;7.510;2023-06-26T03:15:52;20.70;99.90
22698;DHT22;11516;51.612;7.510;2023-06-26T03:18:18;20.60;99.90
22698;DHT22;11516;51.612;7.510;2023-06-26T03:20:44;20.60;99.90
22698;DHT22;11516;51.612;7.510;2023-06-26T03:23:09;20.60;99.90
22698;DHT22;11516;51.612;7.510;2023-06-26T03:25:35;20.60;99.90
22698;DHT22;11516;51.612;7.510;2023-06-26T03:28:00;20.60;99.90
22698;DHT22;11516;51.612;7.510;2023-06-26T03:30:26;20.60;99.90
22698;DHT22;11516;51.612;7.510;2023-06-26T03:32:51;20.50;99.90
22698;DHT22;11516;51.612;7.510;2023-06-26T03:35:17;20.50;99.90
22698;DHT22;11516;51.612;7.510;2023-06-26T03:37:43;20.50;99.90
22698;DHT22;11516;51.612;7.510;2023-06-26T03:40:09;20.40;99.90
22698;DHT22;11516;51.612;7.510;2023-06-26T03:42:34;20.40;99.90
22698;DHT22;11516;51.612;7.510;2023-06-26T03:45:00;20.50;99.90
22698;DHT22;11516;51.612;7.510;2023-06-26T03:47:26;20.40;99.90
22698;DHT22;11516;51.612;7.510;2023-06-26T03:49:51;20.70;99.90
22698;DHT22;11516;51.612;7.510;2023-06-26T03:52:17;20.80;99.90
22698;DHT22;11516;51.612;7.510;2023-06-26T03:54:42;21.10;99.90
22698;DHT22;11516;51.612;7.510;2023-06-26T03:57:08;21.60;99.90
22698;DHT22;11516;51.612;7.510;2023-06-26T03:59:34;21.80;99.90
22698;DHT22;11516;51.612;7.510;2023-06-26T04:02:00;21.90;99.90
22698;DHT22;11516;51.612;7.510;2023-06-26T04:04:25;22.00;99.90
22698;DHT22;11516;51.612;7.510;2023-06-26T04:06:51;22.10;99.90
22698;DHT22;11516;51.612;7.510;2023-06-26T04:09:16;22.20;99.90
22698;DHT22;11516;51.612;7.510;2023-06-26T04:11:42;22.30;99.90
22698;DHT22;11516;51.612;7.510;2023-06-26T04:14:07;22.40;99.90
22698;DHT22;11516;51.612;7.510;2023-06-26T04:16:33;22.40;99.90
22698;DHT22;11516;51.612;7.510;2023-06-26T04:18:59;22.50;99.90
22698;DHT22;11516;51.612;7.510;2023-06-26T04:21:24;22.40;99.90
22698;DHT22;11516;51.612;7.510;2023-06-26T04:23:50;22.50;99.90
22698;DHT22;11516;51.612;7.510;2023-06-26T04:26:16;22.60;99.90
22698;DHT22;11516;51.612;7.510;2023-06-26T04:28:42;22.60;99.90
22698;DHT22;11516;51.612;7.510;2023-06-26T04:31:08;22.60;99.90
22698;DHT22;11516;51.612;7.510;2023-06-26T04:33:37;22.60;99.90
22698;DHT22;11516;51.612;7.510;2023-06-26T04:36:06;22.70;99.90
22698;DHT22;11516;51.612;7.510;2023-06-26T04:38:33;22.60;99.90
22698;DHT22;11516;51.612;7.510;2023-06-26T04:40:59;22.60;99.90
22698;DHT22;11516;51.612;7.510;2023-06-26T04:43:25;22.70;99.90
22698;DHT22;11516;51.612;7.510;2023-06-26T04:45:51;22.70;99.90
22698;DHT22;11516;51.612;7.510;2023-06-26T04:48:16;22.60;99.90
22698;DHT22;11516;51.612;7.510;2023-06-26T04:50:42;22.70;99.90
22698;DHT22;11516;51.612;7.510;2023-06-26T04:53:08;22.70;99.90
22698;DHT22;11516;51.612;7.510;2023-06-26T04:55:33;22.70;99.90
22698;DHT22;11516;51.612;7.510;2023-06-26T04:57:59;22.80;99.90
22698;DHT22;11516;51.612;7.510;2023-06-26T05:00:25;22.60;99.90
22698;DHT22;11516;51.612;7.510;2023-06-26T05:02:51;22.70;99.90
22698;DHT22;11516;51.612;7.510;2023-06-26T05:05:26;22.80;99.90
22698;DHT22;11516;51.612;7.510;2023-06-26T05:07:53;22.80;99.90
22698;DHT22;11516;51.612;7.510;2023-06-26T05:10:19;22.80;99.90
22698;DHT22;11516;51.612;7.510;2023-06-26T05:12:45;22.80;99.90
22698;DHT22;11516;51.612;7.510;2023-06-26T05:15:10;22.70;99.90
22698;DHT22;11516;51.612;7.510;2023-06-26T05:17:36;22.70;99.90
22698;DHT22;11516;51.612;7.510;2023-06-26T05:20:01;22.70;99.90
22698;DHT22;11516;51.612;7.510;2023-06-26T05:22:27;22.60;99.90
22698;DHT22;11516;51.612;7.510;2023-06-26T05:24:54;22.60;99.90
22698;DHT22;11516;51.612;7.510;2023-06-26T05:27:21;22.50;99.90
22698;DHT22;11516;51.612;7.510;2023-06-26T05:29:48;22.60;99.90
22698;DHT22;11516;51.612;7.510;2023-06-26T05:32:16;22.60;99.90
22698;DHT22;11516;51.612;7.510;2023-06-26T05:34:47;22.60;99.90
22698;DHT22;11516;51.612;7.510;2023-06-26T05:37:21;22.60;99.90
22698;DHT22;11516;51.612;7.510;2023-06-26T05:39:47;22.50;99.90
22698;DHT22;11516;51.612;7.510;2023-06-26T05:42:13;22.60;99.90
22698;DHT22;11516;51.612;7.510;2023-06-26T05:44:39;22.60;99.90
22698;DHT22;11516;51.612;7.510;2023-06-26T05:47:04;22.50;99.90
22698;DHT22;11516;51.612;7.510;2023-06-26T05:49:30;22.60;99.90
22698;DHT22;11516;51.612;7.510;2023-06-26T05:51:56;22.60;99.90
22698;DHT22;11516;51.612;7.510;2023-06-26T05:54:23;22.70;99.90
22698;DHT22;11516;51.612;7.510;2023-06-26T05:56:52;22.70;99.90
22698;DHT22;11516;51.612;7.510;2023-06-26T05:59:20;22.70;99.90
22698;DHT22;11516;51.612;7.510;2023-06-26T06:01:47;22.60;99.90
22698;DHT22;11516;51.612;7.510;2023-06-26T06:04:12;22.60;99.90
22698;DHT22;11516;51.612;7.510;2023-06-26T06:06:38;22.50;99.90
22698;DHT22;11516;51.612;7.510;2023-06-26T06:09:03;22.50;99.90
22698;DHT22;11516;51.612;7.510;2023-06-26T06:11:29;22.60;99.90
22698;DHT22;11516;51.612;7.510;2023-06-26T06:13:54;22.60;99.90
22698;DHT22;11516;51.612;7.510;2023-06-26T06:16:20;22.80;99.90
22698;DHT22;11516;51.612;7.510;2023-06-26T06:18:45;23.00;99.90
22698;DHT22;11516;51.612;7.510;2023-06-26T06:21:11;23.00;99.90
22698;DHT22;11516;51.612;7.510;2023-06-26T06:23:36;23.20;99.90
22698;DHT22;11516;51.612;7.510;2023-06-26T06:26:04;23.20;99.90
22698;DHT22;11516;51.612;7.510;2023-06-26T06:28:30;23.20;99.90
22698;DHT22;11516;51.612;7.510;2023-06-26T06:30:55;23.10;99.90
22698;DHT22;11516;51.612;7.510;2023-06-26T06:33:21;23.10;99.90
22698;DHT22;11516;51.612;7.510;2023-06-26T06:35:46;23.10;99.90
22698;DHT22;11516;51.612;7.510;2023-06-26T06:38:12;23.00;99.90
22698;DHT22;11516;51.612;7.510;2023-06-26T06:40:37;22.90;99.90
22698;DHT22;11516;51.612;7.510;2023-06-26T06:43:03;22.90;99.90
22698;DHT22;11516;51.612;7.510;2023-06-26T06:45:29;23.00;99.90
22698;DHT22;11516;51.612;7.510;2023-06-26T06:47:54;23.00;99.90
22698;DHT22;11516;51.612;7.510;2023-06-26T06:50:20;22.90;99.90
22698;DHT22;11516;51.612;7.510;2023-06-26T06:52:46;22.90;99.90
22698;DHT22;11516;51.612;7.510;2023-06-26T06:55:11;22.90;99.90
22698;DHT22;11516;51.612;7.510;2023-06-26T06:57:38;23.00;99.90
22698;DHT22;11516;51.612;7.510;2023-06-26T07:00:13;23.20;99.90
22698;DHT22;11516;51.612;7.510;2023-06-26T07:02:46;23.20;99.90
22698;DHT22;11516;51.612;7.510;2023-06-26T07:05:12;23.40;99.90
22698;DHT22;11516;51.612;7.510;2023-06-26T07:07:38;23.40;99.90
22698;DHT22;11516;51.612;7.510;2023-06-26T07:10:06;23.20;99.90
22698;DHT22;11516;51.612;7.510;2023-06-26T07:12:33;23.30;99.90
22698;DHT22;11516;51.612;7.510;2023-06-26T07:15:00;23.20;99.90
22698;DHT22;11516;51.612;7.510;2023-06-26T07:17:26;23.20;99.90
22698;DHT22;11516;51.612;7.510;2023-06-26T07:19:51;23.10;99.90
22698;DHT22;11516;51.612;7.510;2023-06-26T07:22:17;23.20;99.90
22698;DHT22;11516;51.612;7.510;2023-06-26T07:24:46;23.10;99.90
22698;DHT22;11516;51.612;7.510;2023-06-26T07:27:11;23.10;99.90
22698;DHT22;11516;51.612;7.510;2023-06-26T07:29:37;22.90;99.90
22698;DHT22;11516;51.612;7.510;2023-06-26T07:32:03;22.80;99.90
22698;DHT22;11516;51.612;7.510;2023-06-26T07:34:28;22.90;99.90
22698;DHT22;11516;51.612;7.510;2023-06-26T07:36:54;22.90;99.90
22698;DHT22;11516;51.612;7.510;2023-06-26T07:39:19;22.90;99.90
22698;DHT22;11516;51.612;7.510;2023-06-26T07:41:45;22.70;99.90
22698;DHT22;11516;51.612;7.510;2023-06-26T07:44:10;22.70;99.90
22698;DHT22;11516;51.612;7.510;2023-06-26T07:46:36;22.50;99.90
22698;DHT22;11516;51.612;7.510;2023-06-26T07:49:01;22.60;99.90
22698;DHT22;11516;51.612;7.510;2023-06-26T07:51:27;22.60;99.90
22698;DHT22;11516;51.612;7.510;2023-06-26T07:53:52;22.60;99.90
22698;DHT22;11516;51.612;7.510;2023-06-26T07:56:18;22.50;99.90
22698;DHT22;11516;51.612;7.510;2023-06-26T07:58:43;22.60;99.90
22698;DHT22;11516;51.612;7.510;2023-06-26T08:01:09;22.80;99.90
22698;DHT22;11516;51.612;7.510;2023-06-26T08:03:34;22.80;99.90
22698;DHT22;11516;51.612;7.510;2023-06-26T08:06:00;23.00;99.90
22698;DHT22;11516;51.612;7.510;2023-06-26T08:08:25;23.10;99.90
22698;DHT22;11516;51.612;7.510;2023-06-26T08:10:51;23.00;99.90
22698;DHT22;11516;51.612;7.510;2023-06-26T08:13:16;23.20;99.90
22698;DHT22;11516;51.612;7.510;2023-06-26T08:15:42;23.20;99.90
22698;DHT22;11516;51.612;7.510;2023-06-26T08:18:07;23.10;99.90
22698;DHT22;11516;51.612;7.510;2023-06-26T08:20:33;23.20;99.90
22698;DHT22;11516;51.612;7.510;2023-06-26T08:23:01;23.20;99.90
22698;DHT22;11516;51.612;7.510;2023-06-26T08:25:26;23.50;99.90
22698;DHT22;11516;51.612;7.510;2023-06-26T08:27:52;23.60;99.90
22698;DHT22;11516;51.612;7.510;2023-06-26T08:30:19;23.40;99.90
22698;DHT22;11516;51.612;7.510;2023-06-26T08:32:44;23.40;99.90
22698;DHT22;11516;51.612;7.510;2023-06-26T08:35:10;23.20;99.90
22698;DHT22;11516;51.612;7.510;2023-06-26T08:37:35;23.30;99.90
22698;DHT22;11516;51.612;7.510;2023-06-26T08:40:01;23.30;99.90
22698;DHT22;11516;51.612;7.510;2023-06-26T08:42:27;23.60;99.90
22698;DHT22;11516;51.612;7.510;2023-06-26T08:44:53;23.80;99.90
22698;DHT22;11516;51.612;7.510;2023-06-26T08:47:19;24.00;99.90
22698;DHT22;11516;51.612;7.510;2023-06-26T08:52:35;23.70;99.90
22698;DHT22;11516;51.612;7.510;2023-06-26T08:55:02;23.80;99.90
22698;DHT22;11516;51.612;7.510;2023-06-26T08:57:32;24.00;99.90
22698;DHT22;11516;51.612;7.510;2023-06-26T08:59:57;24.00;99.90
22698;DHT22;11516;51.612;7.510;2023-06-26T09:02:24;23.70;99.90
22698;DHT22;11516;51.612;7.510;2023-06-26T09:04:50;23.60;99.90
22698;DHT22;11516;51.612;7.510;2023-06-26T09:07:16;23.70;99.90
22698;DHT22;11516;51.612;7.510;2023-06-26T09:09:42;23.80;99.90
22698;DHT22;11516;51.612;7.510;2023-06-26T09:12:09;23.90;99.90
22698;DHT22;11516;51.612;7.510;2023-06-26T09:14:36;23.80;99.90
22698;DHT22;11516;51.612;7.510;2023-06-26T09:17:02;23.60;99.90
22698;DHT22;11516;51.612;7.510;2023-06-26T09:19:28;23.80;99.90
22698;DHT22;11516;51.612;7.510;2023-06-26T09:21:54;24.00;99.90
22698;DHT22;11516;51.612;7.510;2023-06-26T09:24:21;23.90;99.90
22698;DHT22;11516;51.612;7.510;2023-06-26T09:26:47;24.00;99.90
22698;DHT22;11516;51.612;7.510;2023-06-26T09:29:14;24.00;99.90
22698;DHT22;11516;51.612;7.510;2023-06-26T09:31:40;23.80;99.90
22698;DHT22;11516;51.612;7.510;2023-06-26T09:34:06;23.70;99.90
22698;DHT22;11516;51.612;7.510;2023-06-26T09:36:32;23.80;99.90
22698;DHT22;11516;51.612;7.510;2023-06-26T09:39:06;23.70;99.90
22698;DHT22;11516;51.612;7.510;2023-06-26T09:41:36;23.80;99.90
22698;DHT22;11516;51.612;7.510;2023-06-26T09:44:06;23.90;99.90
22698;DHT22;11516;51.612;7.510;2023-06-26T09:46:33;23.60;99.90
22698;DHT22;11516;51.612;7.510;2023-06-26T09:49:09;23.60;99.90
22698;DHT22;11516;51.612;7.510;2023-06-26T09:51:37;23.80;99.90
22698;DHT22;11516;51.612;7.510;2023-06-26T09:54:04;24.30;99.90
22698;DHT22;11516;51.612;7.510;2023-06-26T09:56:30;24.20;99.90
22698;DHT22;11516;51.612;7.510;2023-06-26T09:58:57;24.00;99.90
22698;DHT22;11516;51.612;7.510;2023-06-26T10:01:24;23.70;99.90
22698;DHT22;11516;51.612;7.510;2023-06-26T10:03:50;23.50;99.90
22698;DHT22;11516;51.612;7.510;2023-06-26T10:06:19;23.50;99.90
22698;DHT22;11516;51.612;7.510;2023-06-26T10:08:45;24.00;99.90
22698;DHT22;11516;51.612;7.510;2023-06-26T10:11:14;24.40;99.90
22698;DHT22;11516;51.612;7.510;2023-06-26T10:13:43;24.40;99.90
22698;DHT22;11516;51.612;7.510;2023-06-26T10:16:12;24.50;99.90
22698;DHT22;11516;51.612;7.510;2023-06-26T10:18:39;24.40;99.90
22698;DHT22;11516;51.612;7.510;2023-06-26T10:21:06;24.30;99.90
22698;DHT22;11516;51.612;7.510;2023-06-26T10:23:34;24.30;99.90
22698;DHT22;11516;51.612;7.510;2023-06-26T10:26:01;24.20;99.90
22698;DHT22;11516;51.612;7.510;2023-06-26T10:28:29;24.10;99.90
22698;DHT22;11516;51.612;7.510;2023-06-26T10:30:56;24.10;99.90
22698;DHT22;11516;51.612;7.510;2023-06-26T10:33:22;24.50;99.90
22698;DHT22;11516;51.612;7.510;2023-06-26T10:35:48;24.50;99.90
22698;DHT22;11516;51.612;7.510;2023-06-26T10:38:14;24.60;99.90
22698;DHT22;11516;51.612;7.510;2023-06-26T10:40:45;25.20;99.90
22698;DHT22;11516;51.612;7.510;2023-06-26T10:43:12;25.10;99.90
22698;DHT22;11516;51.612;7.510;2023-06-26T10:45:45;24.90;99.90
22698;DHT22;11516;51.612;7.510;2023-06-26T10:48:14;24.50;99.90
22698;DHT22;11516;51.612;7.510;2023-06-26T10:50:40;24.50;99.90
22698;DHT22;11516;51.612;7.510;2023-06-26T10:55:47;24.80;99.90
22698;DHT22;11516;51.612;7.510;2023-06-26T10:58:40;24.90;99.90
22698;DHT22;11516;51.612;7.510;2023-06-26T11:03:43;25.70;99.90
22698;DHT22;11516;51.612;7.510;2023-06-26T11:06:18;26.30;99.90
22698;DHT22;11516;51.612;7.510;2023-06-26T11:09:05;26.80;99.90
22698;DHT22;11516;51.612;7.510;2023-06-26T11:14:21;25.80;99.90
22698;DHT22;11516;51.612;7.510;2023-06-26T11:16:47;25.80;99.30
22698;DHT22;11516;51.612;7.510;2023-06-26T11:19:16;25.90;97.10
22698;DHT22;11516;51.612;7.510;2023-06-26T11:21:41;26.60;95.40
22698;DHT22;11516;51.612;7.510;2023-06-26T11:24:08;26.90;93.80
22698;DHT22;11516;51.612;7.510;2023-06-26T11:26:44;27.40;93.10
22698;DHT22;11516;51.612;7.510;2023-06-26T11:29:11;27.80;91.40
22698;DHT22;11516;51.612;7.510;2023-06-26T11:31:38;28.30;90.90
22698;DHT22;11516;51.612;7.510;2023-06-26T11:34:12;28.40;91.10
22698;DHT22;11516;51.612;7.510;2023-06-26T11:36:38;27.80;92.00
22698;DHT22;11516;51.612;7.510;2023-06-26T11:39:05;26.60;94.70
22698;DHT22;11516;51.612;7.510;2023-06-26T11:41:33;25.80;96.70
22698;DHT22;11516;51.612;7.510;2023-06-26T11:44:03;24.90;97.60
22698;DHT22;11516;51.612;7.510;2023-06-26T11:46:31;24.50;98.90
22698;DHT22;11516;51.612;7.510;2023-06-26T11:48:57;24.50;99.70
22698;DHT22;11516;51.612;7.510;2023-06-26T11:51:22;25.10;99.90
22698;DHT22;11516;51.612;7.510;2023-06-26T11:53:48;25.70;98.40
22698;DHT22;11516;51.612;7.510;2023-06-26T11:56:16;25.70;97.90
22698;DHT22;11516;51.612;7.510;2023-06-26T11:59:17;25.40;98.20
22698;DHT22;11516;51.612;7.510;2023-06-26T12:01:44;25.20;99.90
22698;DHT22;11516;51.612;7.510;2023-06-26T12:04:17;24.90;98.50
22698;DHT22;11516;51.612;7.510;2023-06-26T12:06:49;25.00;97.60
22698;DHT22;11516;51.612;7.510;2023-06-26T12:09:18;25.70;96.30
22698;DHT22;11516;51.612;7.510;2023-06-26T12:11:44;25.80;96.20
22698;DHT22;11516;51.612;7.510;2023-06-26T12:14:13;26.30;95.70
22698;DHT22;11516;51.612;7.510;2023-06-26T12:16:39;26.40;95.00
22698;DHT22;11516;51.612;7.510;2023-06-26T12:19:07;26.40;94.60
22698;DHT22;11516;51.612;7.510;2023-06-26T12:24:18;26.70;94.40
22698;DHT22;11516;51.612;7.510;2023-06-26T12:26:50;27.00;94.10
22698;DHT22;11516;51.612;7.510;2023-06-26T12:29:20;27.60;93.20
22698;DHT22;11516;51.612;7.510;2023-06-26T12:31:51;27.00;93.10
22698;DHT22;11516;51.612;7.510;2023-06-26T12:34:25;26.30;93.40
22698;DHT22;11516;51.612;7.510;2023-06-26T12:36:51;26.30;94.10
22698;DHT22;11516;51.612;7.510;2023-06-26T12:39:19;26.60;93.40
22698;DHT22;11516;51.612;7.510;2023-06-26T12:41:49;27.00;93.00
22698;DHT22;11516;51.612;7.510;2023-06-26T12:44:22;27.80;91.80
22698;DHT22;11516;51.612;7.510;2023-06-26T12:46:49;27.60;91.40
22698;DHT22;11516;51.612;7.510;2023-06-26T12:49:16;26.70;91.60
22698;DHT22;11516;51.612;7.510;2023-06-26T12:51:42;26.70;90.00
22698;DHT22;11516;51.612;7.510;2023-06-26T12:54:08;26.00;90.20
22698;DHT22;11516;51.612;7.510;2023-06-26T12:56:34;26.50;88.80
22698;DHT22;11516;51.612;7.510;2023-06-26T12:58:59;26.10;88.00
22698;DHT22;11516;51.612;7.510;2023-06-26T13:01:26;26.00;88.30
22698;DHT22;11516;51.612;7.510;2023-06-26T13:03:53;26.50;86.00
22698;DHT22;11516;51.612;7.510;2023-06-26T13:06:19;27.20;82.50
22698;DHT22;11516;51.612;7.510;2023-06-26T13:08:44;27.00;80.30
22698;DHT22;11516;51.612;7.510;2023-06-26T13:11:10;26.40;80.00
22698;DHT22;11516;51.612;7.510;2023-06-26T13:13:35;26.60;79.70
22698;DHT22;11516;51.612;7.510;2023-06-26T13:16:01;27.00;78.20
22698;DHT22;11516;51.612;7.510;2023-06-26T13:18:28;27.40;77.90
22698;DHT22;11516;51.612;7.510;2023-06-26T13:20:54;27.40;78.00
22698;DHT22;11516;51.612;7.510;2023-06-26T13:23:20;26.80;76.40
22698;DHT22;11516;51.612;7.510;2023-06-26T13:25:45;26.30;78.20
22698;DHT22;11516;51.612;7.510;2023-06-26T13:28:11;26.80;81.20
22698;DHT22;11516;51.612;7.510;2023-06-26T13:30:37;27.50;80.60
22698;DHT22;11516;51.612;7.510;2023-06-26T13:33:02;27.40;81.80
22698;DHT22;11516;51.612;7.510;2023-06-26T13:35:28;27.50;80.00
22698;DHT22;11516;51.612;7.510;2023-06-26T13:37:54;26.50;80.90
22698;DHT22;11516;51.612;7.510;2023-06-26T13:40:19;26.50;82.00
22698;DHT22;11516;51.612;7.510;2023-06-26T13:42:45;27.10;82.10
22698;DHT22;11516;51.612;7.510;2023-06-26T13:45:11;27.20;81.50
22698;DHT22;11516;51.612;7.510;2023-06-26T13:47:37;27.50;81.40
22698;DHT22;11516;51.612;7.510;2023-06-26T13:50:07;26.10;84.50
22698;DHT22;11516;51.612;7.510;2023-06-26T13:52:33;26.00;86.20
22698;DHT22;11516;51.612;7.510;2023-06-26T13:54:58;26.60;85.00
22698;DHT22;11516;51.612;7.510;2023-06-26T13:57:24;27.00;83.90
22698;DHT22;11516;51.612;7.510;2023-06-26T13:59:49;26.90;82.90
22698;DHT22;11516;51.612;7.510;2023-06-26T14:02:15;26.70;85.00
22698;DHT22;11516;51.612;7.510;2023-06-26T14:04:40;26.70;84.80
22698;DHT22;11516;51.612;7.510;2023-06-26T14:07:06;27.10;84.30
22698;DHT22;11516;51.612;7.510;2023-06-26T14:09:32;27.90;81.50
22698;DHT22;11516;51.612;7.510;2023-06-26T14:11:58;27.40;79.60
22698;DHT22;11516;51.612;7.510;2023-06-26T14:14:24;27.00;80.70
22698;DHT22;11516;51.612;7.510;2023-06-26T14:16:50;27.50;81.30
22698;DHT22;11516;51.612;7.510;2023-06-26T14:19:15;27.60;80.70
22698;DHT22;11516;51.612;7.510;2023-06-26T14:21:42;28.10;80.60
22698;DHT22;11516;51.612;7.510;2023-06-26T14:24:08;26.90;79.90
22698;DHT22;11516;51.612;7.510;2023-06-26T14:26:34;26.70;82.70
22698;DHT22;11516;51.612;7.510;2023-06-26T14:29:02;26.70;83.00
22698;DHT22;11516;51.612;7.510;2023-06-26T14:31:28;26.80;82.50
22698;DHT22;11516;51.612;7.510;2023-06-26T14:33:53;27.00;80.00
22698;DHT22;11516;51.612;7.510;2023-06-26T14:36:19;26.80;79.10
22698;DHT22;11516;51.612;7.510;2023-06-26T14:38:45;26.60;79.60
22698;DHT22;11516;51.612;7.510;2023-06-26T14:41:11;26.50;78.70
22698;DHT22;11516;51.612;7.510;2023-06-26T14:43:36;26.20;80.40
22698;DHT22;11516;51.612;7.510;2023-06-26T14:46:02;25.20;82.00
22698;DHT22;11516;51.612;7.510;2023-06-26T14:48:28;24.80;82.60
22698;DHT22;11516;51.612;7.510;2023-06-26T14:50:53;25.00;82.60
22698;DHT22;11516;51.612;7.510;2023-06-26T14:53:19;25.90;82.80
22698;DHT22;11516;51.612;7.510;2023-06-26T14:55:44;26.80;78.90
22698;DHT22;11516;51.612;7.510;2023-06-26T14:58:10;26.20;78.60
22698;DHT22;11516;51.612;7.510;2023-06-26T15:00:35;26.00;79.40
22698;DHT22;11516;51.612;7.510;2023-06-26T15:03:01;26.20;80.30
22698;DHT22;11516;51.612;7.510;2023-06-26T15:05:26;26.00;79.90
22698;DHT22;11516;51.612;7.510;2023-06-26T15:07:52;25.80;79.80
22698;DHT22;11516;51.612;7.510;2023-06-26T15:10:17;25.20;80.10
22698;DHT22;11516;51.612;7.510;2023-06-26T15:12:43;25.10;79.90
22698;DHT22;11516;51.612;7.510;2023-06-26T15:15:15;24.80;80.70
22698;DHT22;11516;51.612;7.510;2023-06-26T15:17:42;25.20;79.10
22698;DHT22;11516;51.612;7.510;2023-06-26T15:20:08;25.20;79.50
22698;DHT22;11516;51.612;7.510;2023-06-26T15:22:34;25.20;79.60
22698;DHT22;11516;51.612;7.510;2023-06-26T15:24:59;25.50;79.60
22698;DHT22;11516;51.612;7.510;2023-06-26T15:27:25;25.80;78.80
22698;DHT22;11516;51.612;7.510;2023-06-26T15:29:50;25.60;79.20
22698;DHT22;11516;51.612;7.510;2023-06-26T15:32:16;25.90;79.00
22698;DHT22;11516;51.612;7.510;2023-06-26T15:34:42;25.80;77.40
22698;DHT22;11516;51.612;7.510;2023-06-26T15:37:07;26.20;76.70
22698;DHT22;11516;51.612;7.510;2023-06-26T15:39:33;25.80;77.70
22698;DHT22;11516;51.612;7.510;2023-06-26T15:41:58;25.50;77.50
22698;DHT22;11516;51.612;7.510;2023-06-26T15:44:24;24.90;78.10
22698;DHT22;11516;51.612;7.510;2023-06-26T15:46:50;24.90;79.70